Time;durP1;ratioP1;P1;durP2;ratioP2;P2;SDS_P1;SDS_P2;PMS_P1;PMS_P2;Temp;Humidity;BMP_temperature;BMP_pressure;BME280_temperature;BME280_humidity;BME280_pressure;Samples;Min_cycle;Max_cycle;Signal;HPM_P1;HPM_P2
2023/04/09 00:00:19;;;;;;;10.83;8.90;;;;;;;4.11;100.00;96937.97;5078690;28;20551;-74
2023/04/09 00:02:46;;;;;;;10.27;9.27;;;;;;;4.06;100.00;96927.53;5066409;28;20604;-75
2023/04/09 00:05:13;;;;;;;9.40;8.47;;;;;;;3.78;100.00;96894.19;5069901;28;20950;-75
2023/04/09 00:07:40;;;;;;;12.37;8.50;;;;;;;4.52;100.00;96957.91;5047190;28;20539;-75
2023/04/09 00:10:10;;;;;;;8.77;7.60;;;;;;;4.52;100.00;96934.34;5059764;28;20464;-74
2023/04/09 00:12:36;;;;;;;10.17;8.37;;;;;;;4.56;100.00;96938.78;5073132;28;20555;-74
2023/04/09 00:15:04;;;;;;;10.80;7.97;;;;;;;4.56;100.00;96927.53;5079118;28;20484;-75
2023/04/09 00:17:31;;;;;;;8.20;7.40;;;;;;;4.61;100.00;96962.28;5064506;28;20440;-74
2023/04/09 00:19:57;;;;;;;9.83;7.60;;;;;;;4.27;100.00;96949.13;5074086;28;20841;-75
2023/04/09 00:22:24;;;;;;;9.80;8.70;;;;;;;4.24;100.00;96980.28;5074232;28;20440;-76
2023/04/09 00:24:51;;;;;;;11.07;9.97;;;;;;;3.92;100.00;96947.47;5042908;28;20448;-74
2023/04/09 00:27:18;;;;;;;11.87;9.50;;;;;;;3.89;100.00;96960.31;5047346;28;20432;-74
2023/04/09 00:29:44;;;;;;;10.07;9.03;;;;;;;3.79;100.00;96946.22;5064045;28;20449;-74
2023/04/09 00:32:12;;;;;;;13.57;10.30;;;;;;;4.00;100.00;96980.13;5061051;28;20467;-74
2023/04/09 00:34:39;;;;;;;11.53;9.67;;;;;;;3.93;100.00;96966.56;5056827;28;20440;-74
2023/04/09 00:37:05;;;;;;;13.10;9.77;;;;;;;3.92;100.00;96963.16;5065683;28;20439;-74
2023/04/09 00:39:32;;;;;;;10.77;9.17;;;;;;;3.65;100.00;96947.03;5056953;28;21043;-74
2023/04/09 00:42:01;;;;;;;9.43;8.40;;;;;;;3.99;100.00;96978.56;5065175;28;20532;-74
2023/04/09 00:44:29;;;;;;;13.43;8.90;;;;;;;3.80;100.00;96955.63;5058738;28;21007;-74
2023/04/09 00:46:58;;;;;;;11.87;9.13;;;;;;;3.89;100.00;96984.63;5062538;28;20428;-74
2023/04/09 00:49:25;;;;;;;10.30;8.70;;;;;;;3.91;100.00;96979.91;5039156;28;20528;-74
2023/04/09 00:51:53;;;;;;;10.43;8.97;;;;;;;3.99;100.00;96981.97;5029395;28;20437;-74
2023/04/09 00:54:19;;;;;;;10.57;8.80;;;;;;;3.81;100.00;96961.63;5035547;28;20524;-74
2023/04/09 00:56:46;;;;;;;10.20;9.10;;;;;;;3.98;100.00;96977.78;5046695;28;20445;-74
2023/04/09 00:59:14;;;;;;;11.27;10.07;;;;;;;4.00;100.00;96986.16;5059320;28;20487;-74
2023/04/09 01:01:40;;;;;;;10.70;8.67;;;;;;;3.73;100.00;96970.78;5075655;28;20932;-74
2023/04/09 01:04:07;;;;;;;10.57;9.47;;;;;;;3.84;100.00;96974.16;5075281;28;20550;-74
2023/04/09 01:06:51;;;;;;;9.83;8.37;;;;;;;3.87;100.00;96994.56;5058703;28;20901;-74
2023/04/09 01:09:32;;;;;;;10.50;9.10;;;;;;;3.78;100.00;96985.72;5052167;28;20459;-74
2023/04/09 01:12:11;;;;;;;10.80;8.53;;;;;;;3.61;100.00;96990.47;5054647;28;20432;-74
2023/04/09 01:14:46;;;;;;;10.30;8.50;;;;;;;3.51;100.00;96992.03;5081123;28;20500;-74
2023/04/09 01:17:37;;;;;;;9.70;8.70;;;;;;;3.33;100.00;96979.50;5057610;28;20841;-74
2023/04/09 01:20:07;;;;;;;11.63;8.90;;;;;;;3.31;100.00;96984.22;5073259;28;20428;-74
2023/04/09 01:23:08;;;;;;;9.10;8.13;;;;;;;3.31;100.00;96983.44;5093779;28;20439;-74
2023/04/09 01:25:50;;;;;;;10.37;9.27;;;;;;;3.33;100.00;96976.09;5058939;28;20443;-74
2023/04/09 01:28:26;;;;;;;10.77;9.10;;;;;;;2.73;100.00;96905.38;5075032;28;20470;-74
2023/04/09 01:31:02;;;;;;;10.47;9.00;;;;;;;3.03;100.00;96950.78;5075244;28;20419;-73
2023/04/09 01:33:31;;;;;;;10.73;9.33;;;;;;;2.86;100.00;96940.63;5075318;28;20484;-73
2023/04/09 01:35:59;;;;;;;8.90;7.70;;;;;;;3.02;100.00;96977.94;5054071;28;20440;-73
2023/04/09 01:38:26;;;;;;;10.27;9.27;;;;;;;2.74;100.00;96960.97;5044658;28;20503;-74
2023/04/09 01:40:55;;;;;;;10.40;8.70;;;;;;;2.92;100.00;96976.13;5056621;28;20440;-74
2023/04/09 01:43:23;;;;;;;11.43;9.40;;;;;;;2.78;100.00;96975.06;5054859;28;20456;-74
2023/04/09 01:45:50;;;;;;;14.83;10.70;;;;;;;2.45;100.00;96953.63;5054609;28;20429;-73
2023/04/09 01:48:18;;;;;;;14.07;10.87;;;;;;;2.47;100.00;96964.59;5038039;28;20439;-73
2023/04/09 01:50:46;;;;;;;11.80;10.60;;;;;;;2.36;100.00;96950.72;5054429;28;20451;-73
2023/04/09 01:53:13;;;;;;;13.43;9.43;;;;;;;2.35;100.00;96967.44;5055045;28;20460;-73
2023/04/09 01:55:40;;;;;;;11.87;10.43;;;;;;;2.34;100.00;96975.50;5049675;28;21004;-73
2023/04/09 01:58:07;;;;;;;10.83;9.33;;;;;;;2.03;100.00;96948.56;5046253;28;21024;-73
2023/04/09 02:00:39;;;;;;;11.33;9.77;;;;;;;2.02;100.00;96952.22;5037797;28;20467;-73
2023/04/09 02:03:16;;;;;;;11.33;10.10;;;;;;;2.16;100.00;96976.78;5050143;28;20554;-73
2023/04/09 02:06:09;;;;;;;9.90;8.60;;;;;;;2.04;100.00;96987.41;5074115;28;20480;-73
2023/04/09 02:08:36;;;;;;;10.80;9.60;;;;;;;1.76;100.00;96954.72;5047292;28;21002;-73
2023/04/09 02:11:05;;;;;;;13.43;12.13;;;;;;;1.96;100.00;96985.28;5060089;28;20468;-73
2023/04/09 02:13:33;;;;;;;14.83;9.43;;;;;;;1.72;100.00;96966.66;5065244;28;20523;-73
2023/04/09 02:16:02;;;;;;;16.97;10.90;;;;;;;1.70;100.00;96968.75;5056588;28;20775;-73
2023/04/09 02:18:29;;;;;;;16.87;12.23;;;;;;;1.65;100.00;96986.19;5057443;28;20973;-73
2023/04/09 02:20:57;;;;;;;16.30;12.73;;;;;;;1.50;100.00;96967.84;5080360;28;20432;-73
2023/04/09 02:23:26;;;;;;;16.40;11.53;;;;;;;1.63;100.00;96994.25;5050624;28;20457;-73
2023/04/09 02:25:53;;;;;;;14.10;12.53;;;;;;;1.41;100.00;96965.72;5064055;28;20835;-73
2023/04/09 02:28:19;;;;;;;16.60;13.27;;;;;;;1.47;100.00;96967.34;5055461;28;20458;-73
2023/04/09 02:30:46;;;;;;;14.20;11.70;;;;;;;1.37;100.00;96956.06;5032577;28;20456;-73
2023/04/09 02:33:13;;;;;;;11.83;8.93;;;;;;;1.64;100.00;96992.44;5071993;28;20459;-73
2023/04/09 02:35:40;;;;;;;12.97;9.60;;;;;;;1.64;100.00;96987.22;5057822;28;20431;-74
2023/04/09 02:38:12;;;;;;;14.07;10.50;;;;;;;1.69;100.00;96989.84;5073597;28;20427;-73
2023/04/09 02:40:40;;;;;;;9.87;8.53;;;;;;;1.69;100.00;96993.22;5055994;28;20433;-73
2023/04/09 02:43:08;;;;;;;11.30;9.20;;;;;;;1.74;100.00;96982.06;5037112;28;20456;-73
2023/04/09 02:45:35;;;;;;;11.53;8.43;;;;;;;1.62;100.00;96995.28;5053629;28;20941;-73
2023/04/09 02:48:02;;;;;;;10.03;7.80;;;;;;;1.52;100.00;96974.38;5037352;28;20471;-73
2023/04/09 02:50:36;;;;;;;10.10;8.20;;;;;;;1.48;100.00;96975.94;5037193;28;20456;-73
2023/04/09 02:53:03;;;;;;;10.37;8.97;;;;;;;1.31;100.00;96972.66;5039687;28;20457;-73
2023/04/09 02:55:30;;;;;;;11.83;10.63;;;;;;;1.23;100.00;96973.94;5051071;28;20493;-73
2023/04/09 02:57:56;;;;;;;12.30;8.40;;;;;;;1.23;100.00;96983.56;5033714;28;20536;-74
2023/04/09 03:00:23;;;;;;;10.13;8.50;;;;;;;0.95;100.00;96969.03;5033952;28;20432;-74
2023/04/09 03:02:50;;;;;;;9.70;8.63;;;;;;;1.01;100.00;96984.44;5043789;28;20483;-74
2023/04/09 03:05:17;;;;;;;10.03;9.13;;;;;;;0.96;100.00;96986.22;5053866;28;20439;-74
2023/04/09 03:07:43;;;;;;;9.63;8.10;;;;;;;0.79;100.00;96973.31;5033823;28;20441;-74
2023/04/09 03:10:10;;;;;;;9.77;8.30;;;;;;;0.95;100.00;97008.09;5030891;28;20780;-74
2023/04/09 03:12:37;;;;;;;14.37;9.70;;;;;;;1.03;100.00;96998.00;5054684;28;20499;-74
2023/04/09 03:15:04;;;;;;;9.53;7.90;;;;;;;1.04;100.00;96993.56;5073323;28;20439;-74
2023/04/09 03:17:31;;;;;;;10.63;8.77;;;;;;;0.94;100.00;96975.28;5073451;28;20472;-74
2023/04/09 03:19:58;;;;;;;12.27;9.60;;;;;;;1.00;100.00;96975.06;5073357;28;20491;-74
2023/04/09 03:22:36;;;;;;;12.23;9.33;;;;;;;1.05;100.00;96980.31;5073484;28;20498;-74
2023/04/09 03:25:09;;;;;;;13.90;10.53;;;;;;;0.89;100.00;96976.00;5057630;28;20952;-74
2023/04/09 03:27:36;;;;;;;12.73;11.47;;;;;;;1.10;100.00;97014.22;5073334;28;20436;-74
2023/04/09 03:30:03;;;;;;;12.60;11.30;;;;;;;1.06;100.00;97000.09;5056912;28;20428;-74
2023/04/09 03:32:39;;;;;;;11.70;9.40;;;;;;;0.97;100.00;97004.19;5057912;28;20455;-74
2023/04/09 03:35:07;;;;;;;11.47;8.50;;;;;;;0.63;100.00;96972.41;5073565;28;20442;-74
2023/04/09 03:37:34;;;;;;;10.43;9.10;;;;;;;0.51;100.00;96971.75;5056851;28;20437;-74
2023/04/09 03:40:01;;;;;;;9.47;8.50;;;;;;;0.72;100.00;97001.38;5063369;28;20932;-74
2023/04/09 03:42:30;;;;;;;11.63;8.30;;;;;;;0.52;100.00;96981.91;5057202;28;20973;-74
2023/04/09 03:44:56;;;;;;;11.93;8.57;;;;;;;0.57;100.00;96987.19;5056737;28;20455;-74
2023/04/09 03:47:32;;;;;;;9.13;8.23;;;;;;;0.67;100.00;96996.91;5041563;28;20799;-73
2023/04/09 03:49:59;;;;;;;8.40;7.40;;;;;;;0.69;100.00;97001.88;5056697;28;20440;-73
2023/04/09 03:52:31;;;;;;;9.27;8.37;;;;;;;0.39;100.00;96982.31;5040951;28;20459;-73
2023/04/09 03:55:05;;;;;;;12.50;9.60;;;;;;;0.46;100.00;96993.31;5053906;28;20437;-73
2023/04/09 03:57:32;;;;;;;8.20;7.07;;;;;;;0.26;100.00;96980.09;5056880;28;20428;-73
2023/04/09 03:59:59;;;;;;;9.47;8.50;;;;;;;0.30;100.00;96989.00;5054675;28;20512;-73
2023/04/09 04:02:29;;;;;;;10.30;7.23;;;;;;;0.02;100.00;96958.00;5060007;28;20459;-73
2023/04/09 04:05:01;;;;;;;8.27;7.40;;;;;;;0.15;100.00;96983.63;5076461;28;20447;-74
2023/04/09 04:07:32;;;;;;;7.83;7.03;;;;;;;0.18;100.00;96972.72;5076403;28;20894;-74
2023/04/09 04:10:08;;;;;;;9.63;7.17;;;;;;;0.32;100.00;97001.75;5076365;28;20440;-74
2023/04/09 04:12:35;;;;;;;8.70;7.80;;;;;;;0.05;100.00;96966.09;5077573;28;20465;-74
2023/04/09 04:15:06;;;;;;;12.57;8.00;;;;;;;0.15;100.00;96987.00;5073034;28;20884;-75
2023/04/09 04:17:41;;;;;;;8.53;7.73;;;;;;;0.28;100.00;96991.06;5057374;28;20440;-74
2023/04/09 04:20:25;;;;;;;10.13;8.00;;;;;;;0.40;100.00;96998.69;5048733;28;20453;-74
2023/04/09 04:23:00;;;;;;;11.10;9.80;;;;;;;0.22;100.00;96987.59;5061028;28;20506;-74
2023/04/09 04:25:27;;;;;;;6.87;5.90;;;;;;;0.11;100.00;96970.31;5041405;28;20436;-73
2023/04/09 04:27:55;;;;;;;9.00;8.10;;;;;;;0.17;100.00;96989.38;5060601;28;20464;-74
2023/04/09 04:30:27;;;;;;;8.17;7.27;;;;;;;0.22;100.00;97012.81;5040108;28;20528;-74
2023/04/09 04:32:59;;;;;;;11.60;8.30;;;;;;;-0.15;100.00;96979.63;5057440;28;20452;-74
2023/04/09 04:35:29;;;;;;;10.43;8.17;;;;;;;0.22;100.00;97021.41;5059320;28;20448;-74
2023/04/09 04:38:00;;;;;;;11.30;8.60;;;;;;;0.29;100.00;97029.81;5066387;28;20429;-74
2023/04/09 04:40:27;;;;;;;9.77;8.77;;;;;;;0.05;100.00;96997.28;5049432;28;20460;-74
2023/04/09 04:42:58;;;;;;;14.20;9.27;;;;;;;-0.47;100.00;96926.75;5057971;28;20829;-74
2023/04/09 04:45:26;;;;;;;12.83;9.40;;;;;;;0.18;100.00;97002.13;5057672;28;20441;-74
2023/04/09 04:47:58;;;;;;;13.83;11.00;;;;;;;-0.03;100.00;96980.28;5038164;28;20482;-74
2023/04/09 04:50:25;;;;;;;13.13;10.27;;;;;;;-0.34;100.00;96980.94;5048806;28;21029;-74
2023/04/09 04:53:02;;;;;;;11.00;7.57;;;;;;;-0.40;100.00;97000.06;5074145;28;20447;-75
2023/04/09 04:55:38;;;;;;;10.40;8.70;;;;;;;-0.74;100.00;96952.59;5057368;28;20471;-74
2023/04/09 04:58:06;;;;;;;10.73;8.40;;;;;;;-0.51;100.00;96993.19;5041105;28;21006;-74
2023/04/09 05:00:41;;;;;;;10.70;7.20;;;;;;;-0.37;100.00;96986.63;5059934;28;20559;-74
2023/04/09 05:03:08;;;;;;;10.37;8.20;;;;;;;-0.03;100.00;97019.28;5035234;28;20463;-74
2023/04/09 05:05:58;;;;;;;10.23;7.83;;;;;;;-0.34;100.00;97004.31;5053431;28;20424;-74
2023/04/09 05:08:29;;;;;;;9.27;8.03;;;;;;;-0.37;100.00;96991.81;5056970;28;20539;-74
2023/04/09 05:10:57;;;;;;;8.03;7.03;;;;;;;0.02;100.00;97020.38;5056593;28;21018;-74
2023/04/09 05:13:31;;;;;;;10.37;7.90;;;;;;;0.05;100.00;97027.69;5056499;28;20518;-74
2023/04/09 05:15:58;;;;;;;11.87;10.03;;;;;;;-0.18;100.00;97002.69;5037281;28;20446;-74
2023/04/09 05:18:25;;;;;;;8.77;7.50;;;;;;;-0.46;100.00;96982.84;5054868;28;20530;-74
2023/04/09 05:20:52;;;;;;;10.77;9.23;;;;;;;-0.03;100.00;97029.66;5035946;28;20465;-74
2023/04/09 05:23:19;;;;;;;11.87;7.90;;;;;;;-0.08;100.00;97019.22;5051031;28;20967;-74
2023/04/09 05:25:49;;;;;;;9.20;7.23;;;;;;;-0.03;100.00;97029.66;5047745;28;20447;-74
2023/04/09 05:28:23;;;;;;;8.13;6.37;;;;;;;-0.17;100.00;97012.06;5055414;28;20436;-74
2023/04/09 05:31:01;;;;;;;10.87;8.70;;;;;;;-0.34;100.00;97017.31;5054964;28;20480;-74
2023/04/09 05:33:34;;;;;;;10.00;8.33;;;;;;;-0.01;100.00;97026.81;5044227;28;21044;-74
2023/04/09 05:36:00;;;;;;;11.30;10.03;;;;;;;0.01;100.00;97029.22;5045180;28;20948;-74
2023/04/09 05:38:27;;;;;;;9.97;8.37;;;;;;;-0.13;100.00;96998.38;5038869;28;20526;-74
2023/04/09 05:40:57;;;;;;;13.07;10.37;;;;;;;-0.10;100.00;97012.69;5039196;28;21040;-74
2023/04/09 05:43:24;;;;;;;13.07;10.37;;;;;;;0.14;100.00;97023.66;5052454;28;20835;-74
2023/04/09 05:45:51;;;;;;;12.40;10.57;;;;;;;0.49;100.00;97038.84;5036950;28;20443;-74
2023/04/09 05:48:18;;;;;;;12.07;9.50;;;;;;;0.50;100.00;97046.41;5035126;28;20440;-74
2023/04/09 05:50:51;;;;;;;12.77;10.07;;;;;;;0.77;100.00;97041.22;5033365;28;20437;-74
2023/04/09 05:53:24;;;;;;;13.07;11.03;;;;;;;0.83;100.00;97045.47;5035952;28;20460;-74
2023/04/09 05:55:50;;;;;;;13.50;11.13;;;;;;;1.02;100.00;97053.69;5042225;28;20443;-74
2023/04/09 05:58:21;;;;;;;13.17;11.70;;;;;;;0.49;100.00;96963.41;5036228;28;20440;-74
2023/04/09 06:00:50;;;;;;;14.37;10.97;;;;;;;0.97;100.00;97025.03;5059337;28;20461;-74
2023/04/09 06:03:17;;;;;;;17.07;12.07;;;;;;;1.38;100.00;97041.78;5053288;28;20810;-74
2023/04/09 06:05:45;;;;;;;16.70;13.53;;;;;;;1.40;100.00;97044.13;5035276;28;20437;-74
2023/04/09 06:08:12;;;;;;;15.73;12.77;;;;;;;1.62;100.00;97052.63;5058659;28;20444;-74
2023/04/09 06:10:40;;;;;;;20.43;13.63;;;;;;;1.22;100.00;97034.88;5051827;28;20432;-74
2023/04/09 06:13:08;;;;;;;16.23;12.60;;;;;;;1.60;100.00;97052.06;5051462;28;20494;-74
2023/04/09 06:15:37;;;;;;;16.47;11.83;;;;;;;1.51;100.00;97032.75;5066861;28;20447;-74
2023/04/09 06:18:03;;;;;;;17.47;14.63;;;;;;;1.59;100.00;97034.88;5048495;28;20480;-74
2023/04/09 06:20:30;;;;;;;19.50;13.53;;;;;;;1.72;100.00;97050.06;5057981;28;20844;-74
2023/04/09 06:22:57;;;;;;;21.83;13.90;;;;;;;1.62;100.00;97029.16;5092543;28;20490;-74
2023/04/09 06:25:24;;;;;;;20.10;16.13;;;;;;;2.05;100.00;97054.19;5093425;28;20501;-74
2023/04/09 06:27:51;;;;;;;16.30;12.83;;;;;;;2.39;100.00;97053.78;5076187;28;20485;-74
2023/04/09 06:30:17;;;;;;;20.93;14.90;;;;;;;2.37;100.00;97030.56;5076538;28;20428;-74
2023/04/09 06:32:44;;;;;;;26.03;17.73;;;;;;;2.72;100.00;97059.66;5076993;28;20541;-75
2023/04/09 06:35:20;;;;;;;20.67;16.03;;;;;;;2.86;100.00;97017.13;5095177;28;20419;-74
2023/04/09 06:37:47;;;;;;;20.23;15.20;;;;;;;3.33;100.00;97070.19;5077098;28;20443;-74
2023/04/09 06:40:14;;;;;;;18.70;15.07;;;;;;;3.53;100.00;97047.44;5065700;28;20464;-74
2023/04/09 06:42:41;;;;;;;21.50;17.37;;;;;;;3.26;100.00;97049.56;5057038;28;20460;-74
2023/04/09 06:45:18;;;;;;;21.47;16.53;;;;;;;3.62;100.00;97052.16;5054077;28;20947;-74
2023/04/09 06:47:45;;;;;;;20.67;15.73;;;;;;;3.88;100.00;97066.00;5069986;28;20451;-74
2023/04/09 06:50:12;;;;;;;24.47;17.53;;;;;;;4.10;100.00;97059.38;5080645;28;20434;-74
2023/04/09 06:52:39;;;;;;;24.13;16.90;;;;;;;4.35;100.00;97066.38;5061320;28;20791;-74
2023/04/09 06:55:06;;;;;;;22.50;17.43;;;;;;;4.69;100.00;97087.44;5056380;28;20475;-74
2023/04/09 06:57:32;;;;;;;20.33;14.60;;;;;;;4.57;100.00;97094.84;5044906;28;20537;-75
2023/04/09 06:59:59;;;;;;;21.60;16.90;;;;;;;4.15;100.00;97062.00;5063010;28;20467;-74
2023/04/09 07:02:26;;;;;;;21.27;15.53;;;;;;;4.38;100.00;97073.69;5093579;28;20503;-74
2023/04/09 07:04:53;;;;;;;17.50;14.37;;;;;;;4.83;100.00;97079.00;5058260;28;20441;-75
2023/04/09 07:07:21;;;;;;;25.00;17.23;;;;;;;5.37;100.00;97094.66;5057823;28;20439;-74
2023/04/09 07:09:52;;;;;;;21.57;16.97;;;;;;;5.52;100.00;97106.88;5057935;28;20438;-75
2023/04/09 07:12:33;;;;;;;23.17;15.80;;;;;;;5.93;100.00;97104.72;5073924;28;20455;-74
2023/04/09 07:15:02;;;;;;;22.43;16.20;;;;;;;5.38;100.00;97090.97;5074464;28;20435;-75
2023/04/09 07:17:33;;;;;;;20.20;15.53;;;;;;;5.29;100.00;97088.13;5061016;28;20484;-75
2023/04/09 07:20:00;;;;;;;20.83;15.83;;;;;;;6.03;100.00;97083.63;5095580;28;20512;-75
2023/04/09 07:22:29;;;;;;;24.70;17.40;;;;;;;6.04;100.00;97079.16;5061931;28;20464;-75
2023/04/09 07:24:56;;;;;;;20.30;16.83;;;;;;;5.81;100.00;97099.81;5068345;28;20440;-75
2023/04/09 07:27:26;;;;;;;22.10;17.33;;;;;;;6.10;100.00;97106.91;5062588;28;20450;-74
2023/04/09 07:29:55;;;;;;;23.90;16.90;;;;;;;5.31;100.00;97100.97;5088833;28;20447;-75
2023/04/09 07:32:23;;;;;;;22.90;18.70;;;;;;;5.29;100.00;97087.34;5056973;28;20486;-74
2023/04/09 07:34:51;;;;;;;19.40;15.97;;;;;;;5.72;100.00;97083.09;5037658;28;20443;-75
2023/04/09 07:37:19;;;;;;;22.03;17.07;;;;;;;6.44;100.00;97112.88;5051457;28;20531;-75
2023/04/09 07:39:46;;;;;;;17.53;15.63;;;;;;;6.31;100.00;97089.13;5049388;28;20839;-74
2023/04/09 07:42:16;;;;;;;23.00;18.80;;;;;;;6.40;100.00;97084.81;5050392;28;20461;-75
2023/04/09 07:44:46;;;;;;;22.83;17.10;;;;;;;6.59;100.00;97062.00;5079168;28;20990;-75
2023/04/09 07:47:13;;;;;;;21.07;16.83;;;;;;;6.60;100.00;97104.81;5060012;28;20470;-74
2023/04/09 07:49:40;;;;;;;24.97;18.53;;;;;;;6.63;100.00;97088.47;5054482;28;20468;-75
2023/04/09 07:52:07;;;;;;;20.60;17.23;;;;;;;7.11;100.00;97082.06;5070986;28;20428;-75
2023/04/09 07:54:34;;;;;;;22.10;17.47;;;;;;;7.01;100.00;97092.72;5056946;28;21007;-75
2023/04/09 07:57:01;;;;;;;23.47;17.03;;;;;;;7.60;100.00;97087.91;5054487;28;20442;-74
2023/04/09 07:59:28;;;;;;;25.37;20.23;;;;;;;7.71;100.00;97115.63;5056630;28;20432;-75
2023/04/09 08:01:55;;;;;;;20.03;16.77;;;;;;;7.87;100.00;97101.13;5056685;28;20469;-75
2023/04/09 08:04:22;;;;;;;19.83;15.27;;;;;;;8.15;100.00;97091.47;5056799;28;20854;-75
2023/04/09 08:06:49;;;;;;;20.40;17.40;;;;;;;8.18;100.00;97096.13;5056563;28;20450;-75
2023/04/09 08:09:17;;;;;;;20.27;17.37;;;;;;;8.27;100.00;97088.31;5055706;28;20440;-75
2023/04/09 08:11:47;;;;;;;21.60;16.10;;;;;;;8.74;100.00;97103.00;5034251;28;20435;-75
2023/04/09 08:14:15;;;;;;;19.37;15.77;;;;;;;8.57;100.00;97122.06;5065511;28;20412;-75
2023/04/09 08:16:44;;;;;;;19.33;16.03;;;;;;;8.71;100.00;97122.06;5036503;28;20532;-75
2023/04/09 08:19:12;;;;;;;15.90;14.20;;;;;;;8.78;100.00;97106.59;5048426;28;20432;-75
2023/04/09 08:21:43;;;;;;;22.47;17.53;;;;;;;9.32;100.00;97125.25;5093213;28;20486;-75
2023/04/09 08:24:10;;;;;;;19.87;16.97;;;;;;;8.67;100.00;97070.97;5076269;28;20538;-76
2023/04/09 08:26:41;;;;;;;17.10;14.73;;;;;;;9.00;100.00;97126.22;5058257;28;20424;-75
2023/04/09 08:29:10;;;;;;;16.47;14.17;;;;;;;9.34;100.00;97128.38;5059455;28;20976;-75
2023/04/09 08:31:37;;;;;;;16.70;14.23;;;;;;;9.51;100.00;97104.78;5076070;28;20455;-75
2023/04/09 08:34:04;;;;;;;15.50;13.57;;;;;;;9.33;100.00;97126.81;5075944;28;20451;-75
2023/04/09 08:36:33;;;;;;;17.03;13.17;;;;;;;8.99;100.00;97085.88;5075892;28;20535;-75
2023/04/09 08:39:00;;;;;;;13.30;11.93;;;;;;;9.40;100.00;97127.19;5043458;28;20539;-75
2023/04/09 08:41:28;;;;;;;15.97;13.23;;;;;;;9.29;100.00;97120.56;5052332;28;20465;-75
2023/04/09 08:43:55;;;;;;;14.17;12.13;;;;;;;8.98;100.00;97118.59;5049505;28;20972;-74
2023/04/09 08:46:25;;;;;;;13.90;12.50;;;;;;;8.97;100.00;97126.81;5056435;28;20866;-75
2023/04/09 08:48:52;;;;;;;12.93;11.00;;;;;;;8.69;100.00;97129.47;5055900;28;20421;-75
2023/04/09 08:51:23;;;;;;;10.80;9.70;;;;;;;8.96;100.00;97123.41;5055942;28;20808;-75
2023/04/09 08:53:58;;;;;;;12.50;10.63;;;;;;;9.10;100.00;97112.81;5055323;28;20977;-75
2023/04/09 08:56:29;;;;;;;15.97;11.73;;;;;;;9.25;100.00;97101.16;5036198;28;20437;-75
2023/04/09 08:58:56;;;;;;;14.80;12.30;;;;;;;9.56;100.00;97114.44;5090639;28;20725;-75
2023/04/09 09:01:25;;;;;;;13.33;10.47;;;;;;;9.68;100.00;97104.88;5093605;28;20462;-75
2023/04/09 09:03:53;;;;;;;14.60;11.30;;;;;;;9.88;100.00;97123.94;5058697;28;20546;-75
2023/04/09 09:06:21;;;;;;;13.87;12.20;;;;;;;9.29;100.00;97089.69;5075735;28;20463;-75
2023/04/09 09:09:10;;;;;;;13.63;10.80;;;;;;;9.40;100.00;97122.69;5049756;28;20532;-75
2023/04/09 09:11:45;;;;;;;13.60;11.40;;;;;;;9.90;100.00;97127.09;5056785;28;20942;-74
2023/04/09 09:14:14;;;;;;;12.30;11.00;;;;;;;9.93;100.00;97127.28;5061647;28;20510;-75
2023/04/09 09:16:55;;;;;;;11.73;10.40;;;;;;;9.58;100.00;97130.75;5069805;28;20553;-75
2023/04/09 09:19:25;;;;;;;15.63;11.47;;;;;;;9.33;100.00;97126.81;5050354;28;20421;-75
2023/04/09 09:21:59;;;;;;;11.27;9.80;;;;;;;9.02;99.91;97129.34;5059360;28;20479;-74
2023/04/09 09:24:26;;;;;;;11.70;8.83;;;;;;;8.86;95.22;97145.47;5056585;28;20436;-75
2023/04/09 09:26:53;;;;;;;9.20;7.80;;;;;;;8.90;95.74;97135.13;5093417;28;20476;-74
2023/04/09 09:29:20;;;;;;;9.77;8.40;;;;;;;8.57;95.13;97093.06;5073900;28;20489;-75
2023/04/09 09:31:51;;;;;;;9.23;8.33;;;;;;;8.93;92.92;97133.72;5055175;28;20900;-75
2023/04/09 09:34:19;;;;;;;9.43;8.50;;;;;;;8.69;93.23;97124.22;5054800;28;20435;-75
2023/04/09 09:36:47;;;;;;;10.07;9.07;;;;;;;8.96;92.79;97127.91;5056392;28;20535;-75
2023/04/09 09:39:16;;;;;;;10.00;9.00;;;;;;;9.16;95.49;97138.00;5063172;28;20797;-75
2023/04/09 09:41:44;;;;;;;10.27;9.30;;;;;;;9.18;94.67;97106.81;5072563;28;20462;-75
2023/04/09 09:44:28;;;;;;;9.20;8.30;;;;;;;9.28;94.90;97117.16;5072461;28;20480;-75
2023/04/09 09:46:57;;;;;;;11.27;10.10;;;;;;;9.06;96.34;97080.97;5038092;28;20455;-74
2023/04/09 09:49:24;;;;;;;12.20;10.07;;;;;;;9.54;97.80;97132.44;5041317;28;20428;-75
2023/04/09 09:51:53;;;;;;;11.30;10.10;;;;;;;9.12;97.29;97103.53;5072225;28;20421;-75
2023/04/09 09:54:24;;;;;;;11.10;9.53;;;;;;;8.84;94.56;97112.56;5054407;28;20497;-75
2023/04/09 09:56:54;;;;;;;13.53;9.93;;;;;;;9.42;96.09;97133.72;5072323;28;20498;-75
2023/04/09 09:59:25;;;;;;;14.20;10.70;;;;;;;9.36;98.11;97129.66;5037946;28;20938;-75
2023/04/09 10:01:59;;;;;;;14.63;10.63;;;;;;;9.33;99.63;97079.31;5036771;28;20461;-75
2023/04/09 10:04:29;;;;;;;12.30;10.67;;;;;;;9.61;98.26;97127.50;5045059;28;20902;-75
2023/04/09 10:06:56;;;;;;;10.93;9.53;;;;;;;9.31;97.44;97102.59;5056627;28;20447;-75
2023/04/09 10:09:26;;;;;;;10.73;9.63;;;;;;;9.36;96.61;97099.84;5054213;28;20468;-75
2023/04/09 10:11:54;;;;;;;13.30;11.93;;;;;;;9.78;99.38;97114.44;5072087;28;20443;-75
2023/04/09 10:14:21;;;;;;;10.93;9.53;;;;;;;9.25;97.34;97093.25;5051313;28;20440;-75
2023/04/09 10:16:48;;;;;;;10.93;9.50;;;;;;;9.64;98.07;97095.25;5036183;28;20463;-75
2023/04/09 10:19:15;;;;;;;12.30;9.50;;;;;;;9.63;95.73;97120.88;5062661;28;20432;-75
2023/04/09 10:22:14;;;;;;;12.23;9.90;;;;;;;9.97;94.71;97114.22;5050826;28;20468;-75
2023/04/09 10:24:42;;;;;;;10.73;8.27;;;;;;;9.94;93.69;97112.97;5050920;28;20438;-74
2023/04/09 10:27:14;;;;;;;11.63;9.93;;;;;;;10.08;94.01;97105.75;5037429;28;20941;-75
2023/04/09 10:29:47;;;;;;;11.60;9.60;;;;;;;10.26;94.85;97127.00;5054023;28;20977;-75
2023/04/09 10:32:23;;;;;;;16.13;11.20;;;;;;;9.52;96.70;97092.34;5054027;28;20468;-75
2023/04/09 10:34:51;;;;;;;11.07;9.50;;;;;;;9.86;96.92;97118.97;5053944;28;20438;-75
2023/04/09 10:37:23;;;;;;;11.57;10.40;;;;;;;10.20;95.69;97120.25;5037232;28;20440;-75
2023/04/09 10:39:51;;;;;;;13.20;10.63;;;;;;;10.16;96.11;97095.53;5056319;28;20808;-75
2023/04/09 10:42:23;;;;;;;12.27;10.73;;;;;;;10.22;96.05;97095.13;5047770;28;20471;-75
2023/04/09 10:45:10;;;;;;;13.90;11.37;;;;;;;10.78;96.73;97106.03;5073993;28;20446;-75
2023/04/09 10:47:38;;;;;;;13.23;10.67;;;;;;;10.91;95.11;97105.91;5073107;28;20834;-75
2023/04/09 10:50:18;;;;;;;12.13;10.83;;;;;;;10.47;92.16;97108.75;5063705;28;20462;-74
2023/04/09 10:52:46;;;;;;;12.03;10.83;;;;;;;10.76;94.52;97108.22;5065610;28;20530;-75
2023/04/09 10:55:33;;;;;;;12.30;10.97;;;;;;;10.52;93.70;97111.25;5077103;28;20482;-74
2023/04/09 10:57:59;;;;;;;11.43;10.33;;;;;;;10.54;92.70;97090.56;5039163;28;20432;-75
2023/04/09 11:00:26;;;;;;;10.67;9.67;;;;;;;10.76;91.92;97081.75;5075114;28;20457;-75
2023/04/09 11:03:09;;;;;;;11.37;9.73;;;;;;;11.04;91.26;97112.16;5076934;28;20448;-75
2023/04/09 11:05:39;;;;;;;10.77;9.03;;;;;;;10.70;91.90;97040.69;5037806;28;20502;-75
2023/04/09 11:08:08;;;;;;;12.00;10.80;;;;;;;11.14;89.11;97101.28;5060459;28;20440;-75
2023/04/09 11:10:37;;;;;;;10.63;9.53;;;;;;;10.70;90.07;97072.44;5061147;28;20434;-75
2023/04/09 11:13:04;;;;;;;10.00;9.00;;;;;;;10.52;88.34;97093.50;5060639;28;20459;-75
2023/04/09 11:15:33;;;;;;;11.33;9.67;;;;;;;11.03;90.82;97109.81;5075277;28;20839;-75
2023/04/09 11:18:01;;;;;;;12.80;11.47;;;;;;;11.14;89.39;97105.78;5075439;28;20486;-75
2023/04/09 11:20:29;;;;;;;12.03;9.90;;;;;;;11.08;89.36;97099.84;5057593;28;20925;-75
2023/04/09 11:22:58;;;;;;;10.90;9.90;;;;;;;11.35;88.37;97093.50;5075535;28;20460;-75
2023/04/09 11:25:27;;;;;;;11.63;9.97;;;;;;;11.57;90.04;97050.16;5068908;28;20428;-75
2023/04/09 11:27:54;;;;;;;12.00;10.80;;;;;;;11.69;88.15;97100.66;5039672;28;20433;-75
2023/04/09 11:30:21;;;;;;;11.10;9.13;;;;;;;11.96;87.71;97070.38;5057232;28;20893;-75
2023/04/09 11:32:48;;;;;;;11.17;10.07;;;;;;;12.21;87.31;97097.91;5053205;28;20888;-75